createdAt,value
2019-06-26T00:04:36.700Z,12.93
2019-06-26T00:09:41.531Z,8.90
2019-06-26T00:14:48.003Z,12.60
2019-06-26T00:19:53.121Z,8.60
2019-06-26T00:24:57.946Z,10.63
2019-06-26T00:30:03.686Z,10.30
2019-06-26T00:35:08.813Z,8.43
2019-06-26T00:40:14.440Z,13.77
2019-06-26T00:45:19.255Z,10.57
2019-06-26T00:50:24.083Z,10.40
2019-06-26T00:55:29.160Z,11.67
2019-06-26T01:00:49.266Z,8.47
2019-06-26T01:05:54.332Z,8.13
2019-06-26T01:10:59.186Z,8.67
2019-06-26T01:16:03.984Z,8.87
2019-06-26T01:21:08.798Z,8.70
2019-06-26T01:26:13.858Z,10.60
2019-06-26T01:31:18.950Z,10.33
2019-06-26T01:36:23.769Z,9.67
2019-06-26T01:41:28.831Z,9.37
2019-06-26T01:46:33.743Z,8.77
2019-06-26T01:51:38.574Z,8.83
2019-06-26T01:56:43.398Z,9.37
2019-06-26T02:01:48.465Z,10.17
2019-06-26T02:06:53.284Z,9.73
2019-06-26T02:12:00.413Z,9.87
2019-06-26T02:17:05.845Z,10.70
2019-06-26T02:22:10.846Z,11.47
2019-06-26T02:27:15.670Z,9.57
2019-06-26T02:32:20.577Z,10.13
2019-06-26T02:37:25.599Z,10.10
2019-06-26T02:42:30.423Z,10.73
2019-06-26T02:47:35.520Z,11.33
2019-06-26T02:52:40.608Z,14.50
2019-06-26T02:57:45.440Z,12.13
2019-06-26T03:02:50.517Z,11.30
2019-06-26T03:07:55.595Z,13.07
2019-06-26T03:13:00.429Z,12.40
2019-06-26T03:18:05.571Z,13.50
2019-06-26T03:23:10.675Z,14.40
2019-06-26T03:28:15.762Z,13.60
2019-06-26T03:33:20.846Z,14.83
2019-06-26T03:38:25.681Z,18.90
2019-06-26T03:43:30.762Z,20.27
2019-06-26T03:48:35.615Z,17.40
2019-06-26T03:53:40.606Z,16.07
2019-06-26T03:58:45.679Z,17.07
2019-06-26T04:03:50.744Z,16.57
2019-06-26T04:08:55.825Z,17.87
2019-06-26T04:14:00.889Z,17.90
2019-06-26T04:19:05.973Z,22.17
2019-06-26T04:24:10.798Z,20.33
2019-06-26T04:29:15.877Z,24.60
2019-06-26T04:34:20.703Z,23.27
2019-06-26T04:39:27.192Z,27.73
2019-06-26T04:44:32.271Z,19.97
2019-06-26T04:49:37.094Z,28.23
2019-06-26T04:54:42.168Z,32.30
2019-06-26T04:59:47.015Z,31.87
2019-06-26T05:04:52.106Z,34.87
2019-06-26T05:09:57.218Z,35.33
2019-06-26T05:15:02.304Z,45.07
2019-06-26T05:20:08.048Z,43.50
2019-06-26T05:25:12.968Z,46.17
2019-06-26T05:30:18.152Z,48.70
2019-06-26T05:35:22.986Z,53.87
2019-06-26T05:40:27.855Z,64.27
2019-06-26T05:45:32.703Z,60.37
2019-06-26T05:50:37.541Z,62.23
2019-06-26T05:55:42.546Z,66.60
2019-06-26T06:00:47.876Z,57.87
2019-06-26T06:05:52.776Z,53.23
2019-06-26T06:10:58.370Z,57.87
2019-06-26T06:16:06.342Z,48.27
2019-06-26T06:21:10.196Z,50.37
2019-06-26T06:26:15.291Z,50.70
2019-06-26T06:31:20.385Z,55.70
2019-06-26T06:36:25.524Z,59.50
2019-06-26T06:41:30.615Z,52.43
2019-06-26T06:46:35.460Z,51.23
2019-06-26T06:51:40.289Z,52.23
2019-06-26T06:56:45.121Z,45.27
2019-06-26T07:01:49.949Z,41.50
2019-06-26T07:06:58.590Z,44.60
2019-06-26T07:12:01.910Z,42.57
2019-06-26T07:17:20.098Z,41.73
2019-06-26T07:22:14.272Z,42.17
2019-06-26T07:27:20.735Z,38.67
2019-06-26T07:32:25.596Z,38.00
2019-06-26T07:37:30.728Z,36.50
2019-06-26T07:42:35.806Z,37.73
2019-06-26T07:47:43.628Z,42.13
2019-06-26T07:52:47.432Z,29.43
2019-06-26T07:57:52.498Z,34.13
2019-06-26T08:02:57.331Z,33.97
2019-06-26T08:08:02.486Z,35.10
2019-06-26T08:13:07.665Z,29.50
2019-06-26T08:18:12.762Z,29.73
2019-06-26T08:23:17.618Z,24.87
2019-06-26T08:28:22.504Z,23.00
2019-06-26T08:33:27.589Z,27.10
2019-06-26T08:38:32.414Z,24.17
2019-06-26T08:43:37.499Z,21.43
2019-06-26T08:48:42.598Z,18.80
2019-06-26T08:53:47.471Z,18.60
2019-06-26T08:58:52.541Z,21.90
2019-06-26T09:03:57.633Z,17.87
2019-06-26T09:09:02.707Z,20.57
2019-06-26T09:14:09.405Z,23.47
2019-06-26T09:19:14.646Z,25.50
2019-06-26T09:24:19.481Z,31.57
2019-06-26T09:29:24.543Z,26.67
2019-06-26T09:34:29.613Z,25.60
2019-06-26T09:39:34.460Z,23.70
2019-06-26T09:44:39.598Z,19.00
2019-06-26T09:49:44.512Z,25.63
2019-06-26T09:54:49.573Z,27.23
2019-06-26T09:59:56.207Z,24.17
2019-06-26T10:05:01.075Z,17.67
2019-06-26T10:10:06.426Z,19.70
2019-06-26T10:15:11.909Z,18.37
2019-06-26T10:20:17.031Z,16.30
2019-06-26T10:25:21.868Z,21.50
2019-06-26T10:30:26.964Z,22.73
2019-06-26T10:35:31.787Z,22.33
2019-06-26T10:40:36.711Z,23.53
2019-06-26T10:45:41.759Z,19.67
2019-06-26T10:50:54.600Z,19.20
2019-06-26T10:55:55.640Z,19.10
2019-06-26T11:01:00.493Z,21.50
2019-06-26T11:06:05.658Z,12.87
2019-06-26T11:11:10.544Z,21.73
2019-06-26T11:16:15.475Z,27.20
2019-06-26T11:21:20.346Z,26.03
2019-06-26T11:26:26.115Z,26.13
2019-06-26T11:31:30.956Z,31.70
2019-06-26T11:36:36.126Z,23.83
2019-06-26T11:41:41.092Z,27.43
2019-06-26T11:46:46.262Z,28.00
2019-06-26T11:51:51.329Z,26.93
2019-06-26T11:56:56.151Z,25.57
2019-06-26T12:02:02.050Z,19.10
2019-06-26T12:07:07.136Z,19.80
2019-06-26T12:12:11.958Z,17.33
2019-06-26T12:17:16.808Z,24.53
2019-06-26T12:22:21.619Z,17.57
2019-06-26T12:27:26.458Z,21.83
2019-06-26T12:32:31.292Z,24.37
2019-06-26T12:37:37.937Z,22.90
2019-06-26T12:42:43.108Z,26.37
2019-06-26T12:47:49.995Z,19.83
2019-06-26T12:52:54.821Z,25.00
2019-06-26T12:58:12.437Z,24.20
2019-06-26T13:03:08.227Z,22.37
2019-06-26T13:08:13.093Z,25.17
2019-06-26T13:13:18.161Z,26.00
2019-06-26T13:18:23.013Z,22.47
2019-06-26T13:23:27.852Z,28.27
2019-06-26T13:28:32.939Z,28.23
2019-06-26T13:33:37.925Z,27.07
2019-06-26T13:38:42.769Z,24.30
2019-06-26T13:43:47.876Z,26.73
2019-06-26T13:48:52.904Z,24.43
2019-06-26T13:53:58.122Z,23.33
2019-06-26T13:59:03.232Z,22.07
2019-06-26T14:04:08.061Z,19.93
2019-06-26T14:09:12.911Z,17.67
2019-06-26T14:14:17.822Z,14.10
2019-06-26T14:19:26.638Z,16.33
2019-06-26T14:24:29.463Z,17.30
2019-06-26T14:29:34.311Z,18.93
2019-06-26T14:34:39.157Z,15.97
2019-06-26T14:39:44.363Z,15.50
2019-06-26T14:44:52.615Z,16.10
2019-06-26T14:49:56.235Z,15.33
2019-06-26T14:55:01.074Z,16.37
2019-06-26T15:00:07.127Z,13.23
2019-06-26T15:05:12.104Z,15.73
2019-06-26T15:10:17.345Z,13.57
2019-06-26T15:15:25.192Z,17.53
2019-06-26T15:20:30.045Z,16.03
2019-06-26T15:25:34.888Z,12.87
2019-06-26T15:30:39.959Z,12.50
2019-06-26T15:35:45.076Z,12.50
2019-06-26T15:40:49.897Z,13.03
2019-06-26T15:45:54.750Z,12.03
2019-06-26T15:50:59.847Z,8.70
2019-06-26T15:56:06.404Z,11.10
2019-06-26T16:01:12.707Z,7.87
2019-06-26T16:06:17.538Z,9.23
2019-06-26T16:11:22.343Z,10.33
2019-06-26T16:16:27.500Z,8.87
2019-06-26T16:21:32.584Z,10.87
2019-06-26T16:26:37.412Z,14.50
2019-06-26T16:31:43.768Z,8.63
2019-06-26T16:36:48.838Z,10.07
2019-06-26T16:41:53.689Z,8.80
2019-06-26T16:46:59.406Z,9.47
2019-06-26T16:52:04.579Z,11.80
2019-06-26T16:57:09.723Z,13.87
2019-06-26T17:02:14.570Z,8.40
2019-06-26T17:07:19.649Z,9.20
2019-06-26T17:12:24.609Z,11.10
2019-06-26T17:17:29.704Z,14.37
2019-06-26T17:22:34.590Z,10.47
2019-06-26T17:27:39.504Z,11.10
2019-06-26T17:32:44.556Z,14.70
2019-06-26T17:37:49.543Z,8.23
2019-06-26T17:43:08.156Z,10.67
2019-06-26T17:48:02.976Z,10.17
2019-06-26T17:53:21.712Z,8.13
2019-06-26T17:58:25.291Z,9.20
2019-06-26T18:03:28.502Z,9.73
2019-06-26T18:08:33.649Z,8.00
2019-06-26T18:13:39.418Z,9.50
2019-06-26T18:18:46.807Z,6.13
2019-06-26T18:23:51.894Z,5.93
2019-06-26T18:28:56.716Z,7.67
2019-06-26T18:34:01.618Z,8.33
2019-06-26T18:39:08.363Z,7.73
2019-06-26T18:44:13.455Z,8.67
2019-06-26T18:49:19.886Z,6.90
2019-06-26T18:54:24.714Z,5.07
2019-06-26T18:59:29.544Z,5.10
2019-06-26T19:04:34.406Z,5.80
2019-06-26T19:09:46.319Z,8.70
2019-06-26T19:14:52.951Z,7.57
2019-06-26T19:19:58.097Z,4.90
2019-06-26T19:25:03.302Z,6.13
2019-06-26T19:30:10.210Z,9.13
2019-06-26T19:35:19.436Z,7.60
2019-06-26T19:40:24.122Z,6.17
2019-06-26T19:45:28.678Z,5.57
2019-06-26T19:50:33.777Z,7.07
2019-06-26T19:55:38.830Z,6.27
2019-06-26T20:00:43.895Z,5.67
2019-06-26T20:05:50.817Z,4.40
2019-06-26T20:10:55.648Z,3.43
2019-06-26T20:16:00.732Z,3.93
2019-06-26T20:21:05.824Z,5.53
2019-06-26T20:26:10.869Z,3.33
2019-06-26T20:31:15.952Z,3.20
2019-06-26T20:36:21.028Z,4.53
2019-06-26T20:41:27.674Z,6.63
2019-06-26T20:46:34.383Z,5.47
2019-06-26T20:51:39.539Z,3.53
2019-06-26T20:56:44.813Z,8.73
2019-06-26T21:01:49.665Z,6.57
2019-06-26T21:06:55.475Z,6.77
2019-06-26T21:12:00.304Z,7.53
2019-06-26T21:17:05.135Z,5.77
2019-06-26T21:22:09.964Z,6.30
2019-06-26T21:27:14.865Z,3.97
2019-06-26T21:32:19.948Z,6.20
2019-06-26T21:37:25.028Z,6.97
2019-06-26T21:42:29.861Z,5.20
2019-06-26T21:47:34.663Z,7.37
2019-06-26T21:52:39.494Z,7.47
2019-06-26T21:57:44.330Z,4.97
2019-06-26T22:03:06.983Z,8.07
2019-06-26T22:08:13.652Z,6.90
2019-06-26T22:13:20.321Z,8.73
2019-06-26T22:18:25.136Z,6.00
2019-06-26T22:23:29.957Z,8.40
2019-06-26T22:28:35.034Z,7.00
2019-06-26T22:33:40.110Z,6.47
2019-06-26T22:38:45.177Z,10.53
2019-06-26T22:43:50.018Z,5.20
2019-06-26T22:48:55.100Z,9.30
2019-06-26T22:53:59.951Z,6.53
2019-06-26T22:59:05.102Z,10.33
2019-06-26T23:04:10.172Z,4.53
2019-06-26T23:09:15.001Z,10.17
2019-06-26T23:14:20.004Z,6.20
2019-06-26T23:19:24.825Z,6.47
2019-06-26T23:24:29.735Z,6.23
2019-06-26T23:29:34.967Z,6.37
2019-06-26T23:34:40.765Z,8.80
2019-06-26T23:39:45.824Z,6.13
2019-06-26T23:44:50.657Z,5.07
2019-06-26T23:49:55.495Z,6.90
2019-06-26T23:55:00.317Z,6.67
